sensor_id;sensor_type;location;lat;lon;timestamp;P1;durP1;ratioP1;P2;durP2;ratioP2
78120;SDS011;67585;44.802;10.332;2023-05-10T00:01:20;10.35;;;4.07;;
78120;SDS011;67585;44.802;10.332;2023-05-10T00:03:45;8.43;;;4.53;;
78120;SDS011;67585;44.802;10.332;2023-05-10T00:06:11;8.77;;;4.72;;
78120;SDS011;67585;44.802;10.332;2023-05-10T00:08:37;10.95;;;3.78;;
78120;SDS011;67585;44.802;10.332;2023-05-10T00:11:02;11.50;;;4.50;;
78120;SDS011;67585;44.802;10.332;2023-05-10T00:13:28;8.60;;;4.43;;
78120;SDS011;67585;44.802;10.332;2023-05-10T00:15:53;7.22;;;3.55;;
78120;SDS011;67585;44.802;10.332;2023-05-10T00:18:18;11.70;;;4.68;;
78120;SDS011;67585;44.802;10.332;2023-05-10T00:20:44;8.18;;;3.83;;
78120;SDS011;67585;44.802;10.332;2023-05-10T00:23:11;9.55;;;4.32;;
78120;SDS011;67585;44.802;10.332;2023-05-10T00:25:36;8.15;;;4.05;;
78120;SDS011;67585;44.802;10.332;2023-05-10T00:28:02;11.63;;;5.32;;
78120;SDS011;67585;44.802;10.332;2023-05-10T00:30:27;13.43;;;5.28;;
78120;SDS011;67585;44.802;10.332;2023-05-10T00:32:53;12.07;;;6.32;;
78120;SDS011;67585;44.802;10.332;2023-05-10T00:35:18;15.20;;;5.78;;
78120;SDS011;67585;44.802;10.332;2023-05-10T00:37:44;12.48;;;5.53;;
78120;SDS011;67585;44.802;10.332;2023-05-10T00:40:12;13.02;;;5.70;;
78120;SDS011;67585;44.802;10.332;2023-05-10T00:42:38;11.73;;;6.00;;
78120;SDS011;67585;44.802;10.332;2023-05-10T00:45:04;13.07;;;5.10;;
78120;SDS011;67585;44.802;10.332;2023-05-10T00:47:29;14.35;;;5.55;;
78120;SDS011;67585;44.802;10.332;2023-05-10T00:49:56;14.65;;;6.22;;
78120;SDS011;67585;44.802;10.332;2023-05-10T00:52:22;11.50;;;5.45;;
78120;SDS011;67585;44.802;10.332;2023-05-10T00:54:49;10.75;;;5.45;;
78120;SDS011;67585;44.802;10.332;2023-05-10T00:57:15;12.73;;;5.85;;
78120;SDS011;67585;44.802;10.332;2023-05-10T00:59:40;12.80;;;6.78;;
78120;SDS011;67585;44.802;10.332;2023-05-10T01:02:06;14.00;;;7.20;;
78120;SDS011;67585;44.802;10.332;2023-05-10T01:04:31;15.00;;;6.50;;
78120;SDS011;67585;44.802;10.332;2023-05-10T01:06:58;15.52;;;5.28;;
78120;SDS011;67585;44.802;10.332;2023-05-10T01:09:24;17.77;;;6.30;;
78120;SDS011;67585;44.802;10.332;2023-05-10T01:11:51;15.13;;;6.97;;
78120;SDS011;67585;44.802;10.332;2023-05-10T01:14:17;15.48;;;7.28;;
78120;SDS011;67585;44.802;10.332;2023-05-10T01:16:44;12.13;;;5.63;;
78120;SDS011;67585;44.802;10.332;2023-05-10T01:19:19;19.60;;;7.65;;
78120;SDS011;67585;44.802;10.332;2023-05-10T01:25:28;13.45;;;7.03;;
78120;SDS011;67585;44.802;10.332;2023-05-10T01:33:46;13.00;;;7.22;;
78120;SDS011;67585;44.802;10.332;2023-05-10T01:41:49;11.07;;;6.30;;
78120;SDS011;67585;44.802;10.332;2023-05-10T01:44:39;11.57;;;5.50;;
78120;SDS011;67585;44.802;10.332;2023-05-10T01:47:11;14.77;;;7.25;;
78120;SDS011;67585;44.802;10.332;2023-05-10T01:49:52;13.73;;;6.70;;
78120;SDS011;67585;44.802;10.332;2023-05-10T01:52:20;11.88;;;5.15;;
78120;SDS011;67585;44.802;10.332;2023-05-10T01:55:00;13.88;;;6.95;;
78120;SDS011;67585;44.802;10.332;2023-05-10T01:57:32;12.00;;;5.68;;
78120;SDS011;67585;44.802;10.332;2023-05-10T02:00:01;13.75;;;6.90;;
78120;SDS011;67585;44.802;10.332;2023-05-10T02:02:28;13.50;;;5.68;;
78120;SDS011;67585;44.802;10.332;2023-05-10T02:04:58;12.10;;;6.72;;
78120;SDS011;67585;44.802;10.332;2023-05-10T02:07:24;14.80;;;6.40;;
78120;SDS011;67585;44.802;10.332;2023-05-10T02:09:53;15.45;;;5.82;;
78120;SDS011;67585;44.802;10.332;2023-05-10T02:12:20;9.15;;;4.60;;
78120;SDS011;67585;44.802;10.332;2023-05-10T02:14:49;10.30;;;4.93;;
78120;SDS011;67585;44.802;10.332;2023-05-10T02:17:17;10.82;;;5.28;;
78120;SDS011;67585;44.802;10.332;2023-05-10T02:19:44;8.57;;;4.40;;
78120;SDS011;67585;44.802;10.332;2023-05-10T02:22:12;11.98;;;5.57;;
78120;SDS011;67585;44.802;10.332;2023-05-10T02:24:38;12.55;;;5.80;;
78120;SDS011;67585;44.802;10.332;2023-05-10T02:27:05;11.13;;;4.97;;
78120;SDS011;67585;44.802;10.332;2023-05-10T02:29:31;10.82;;;4.85;;
78120;SDS011;67585;44.802;10.332;2023-05-10T02:31:58;12.05;;;5.95;;
78120;SDS011;67585;44.802;10.332;2023-05-10T02:34:25;11.55;;;5.05;;
78120;SDS011;67585;44.802;10.332;2023-05-10T02:36:52;12.93;;;5.22;;
78120;SDS011;67585;44.802;10.332;2023-05-10T02:39:18;12.35;;;4.95;;
78120;SDS011;67585;44.802;10.332;2023-05-10T02:41:45;8.80;;;5.00;;
78120;SDS011;67585;44.802;10.332;2023-05-10T02:44:14;11.00;;;4.53;;
78120;SDS011;67585;44.802;10.332;2023-05-10T02:46:40;12.30;;;5.15;;
78120;SDS011;67585;44.802;10.332;2023-05-10T02:49:06;10.32;;;5.15;;
78120;SDS011;67585;44.802;10.332;2023-05-10T02:51:32;8.43;;;3.78;;
78120;SDS011;67585;44.802;10.332;2023-05-10T02:54:18;9.40;;;3.53;;
78120;SDS011;67585;44.802;10.332;2023-05-10T02:56:50;7.68;;;3.08;;
78120;SDS011;67585;44.802;10.332;2023-05-10T02:59:18;7.95;;;4.63;;
78120;SDS011;67585;44.802;10.332;2023-05-10T03:01:44;8.73;;;3.90;;
78120;SDS011;67585;44.802;10.332;2023-05-10T03:04:10;8.63;;;3.97;;
78120;SDS011;67585;44.802;10.332;2023-05-10T03:06:35;6.53;;;3.00;;
78120;SDS011;67585;44.802;10.332;2023-05-10T03:09:01;6.82;;;2.95;;
78120;SDS011;67585;44.802;10.332;2023-05-10T03:11:43;7.85;;;3.42;;
78120;SDS011;67585;44.802;10.332;2023-05-10T03:17:10;7.15;;;3.10;;
78120;SDS011;67585;44.802;10.332;2023-05-10T03:20:16;8.15;;;3.10;;
78120;SDS011;67585;44.802;10.332;2023-05-10T03:22:40;6.43;;;3.05;;
78120;SDS011;67585;44.802;10.332;2023-05-10T03:25:12;6.75;;;3.67;;
78120;SDS011;67585;44.802;10.332;2023-05-10T03:27:42;9.75;;;4.70;;
78120;SDS011;67585;44.802;10.332;2023-05-10T03:30:10;9.68;;;3.30;;
78120;SDS011;67585;44.802;10.332;2023-05-10T03:32:37;6.68;;;2.58;;
78120;SDS011;67585;44.802;10.332;2023-05-10T03:35:10;6.97;;;3.10;;
78120;SDS011;67585;44.802;10.332;2023-05-10T03:37:38;8.07;;;2.88;;
78120;SDS011;67585;44.802;10.332;2023-05-10T03:40:06;7.95;;;3.67;;
78120;SDS011;67585;44.802;10.332;2023-05-10T03:42:32;10.25;;;3.10;;
78120;SDS011;67585;44.802;10.332;2023-05-10T03:44:58;7.53;;;3.42;;
78120;SDS011;67585;44.802;10.332;2023-05-10T03:47:23;6.03;;;3.30;;
78120;SDS011;67585;44.802;10.332;2023-05-10T03:49:48;7.75;;;4.22;;
78120;SDS011;67585;44.802;10.332;2023-05-10T03:52:14;7.30;;;3.22;;
78120;SDS011;67585;44.802;10.332;2023-05-10T03:54:39;8.73;;;3.83;;
78120;SDS011;67585;44.802;10.332;2023-05-10T03:57:04;8.43;;;3.50;;
78120;SDS011;67585;44.802;10.332;2023-05-10T03:59:30;6.68;;;3.28;;
78120;SDS011;67585;44.802;10.332;2023-05-10T04:01:55;6.28;;;3.00;;
78120;SDS011;67585;44.802;10.332;2023-05-10T04:04:21;7.97;;;3.22;;
78120;SDS011;67585;44.802;10.332;2023-05-10T04:06:48;6.30;;;3.33;;
78120;SDS011;67585;44.802;10.332;2023-05-10T04:09:13;6.30;;;2.28;;
78120;SDS011;67585;44.802;10.332;2023-05-10T04:11:39;7.05;;;3.20;;
78120;SDS011;67585;44.802;10.332;2023-05-10T04:14:04;8.15;;;3.55;;
78120;SDS011;67585;44.802;10.332;2023-05-10T04:16:29;7.20;;;2.55;;
78120;SDS011;67585;44.802;10.332;2023-05-10T04:18:55;6.65;;;1.52;;
78120;SDS011;67585;44.802;10.332;2023-05-10T04:21:20;5.97;;;2.85;;
78120;SDS011;67585;44.802;10.332;2023-05-10T04:23:46;6.18;;;2.90;;
78120;SDS011;67585;44.802;10.332;2023-05-10T04:26:12;6.07;;;2.60;;
78120;SDS011;67585;44.802;10.332;2023-05-10T04:28:37;6.68;;;2.78;;
78120;SDS011;67585;44.802;10.332;2023-05-10T04:31:04;7.40;;;2.72;;
78120;SDS011;67585;44.802;10.332;2023-05-10T04:33:33;7.97;;;2.15;;
78120;SDS011;67585;44.802;10.332;2023-05-10T04:35:59;6.18;;;2.90;;
78120;SDS011;67585;44.802;10.332;2023-05-10T04:38:25;7.43;;;3.03;;
78120;SDS011;67585;44.802;10.332;2023-05-10T04:40:51;5.72;;;2.60;;
78120;SDS011;67585;44.802;10.332;2023-05-10T04:43:17;6.80;;;2.92;;
78120;SDS011;67585;44.802;10.332;2023-05-10T04:45:42;8.02;;;2.65;;
78120;SDS011;67585;44.802;10.332;2023-05-10T04:48:08;6.20;;;3.15;;
78120;SDS011;67585;44.802;10.332;2023-05-10T04:50:33;6.20;;;2.92;;
78120;SDS011;67585;44.802;10.332;2023-05-10T04:52:59;7.78;;;3.25;;
78120;SDS011;67585;44.802;10.332;2023-05-10T04:55:24;8.55;;;3.58;;
78120;SDS011;67585;44.802;10.332;2023-05-10T04:57:50;9.95;;;1.92;;
78120;SDS011;67585;44.802;10.332;2023-05-10T05:00:15;7.07;;;3.03;;
78120;SDS011;67585;44.802;10.332;2023-05-10T05:02:44;7.53;;;3.55;;
78120;SDS011;67585;44.802;10.332;2023-05-10T05:05:12;6.30;;;2.92;;
78120;SDS011;67585;44.802;10.332;2023-05-10T05:07:38;5.95;;;2.58;;
78120;SDS011;67585;44.802;10.332;2023-05-10T05:10:07;6.43;;;3.22;;
78120;SDS011;67585;44.802;10.332;2023-05-10T05:12:33;7.13;;;3.50;;
78120;SDS011;67585;44.802;10.332;2023-05-10T05:14:59;4.93;;;2.58;;
78120;SDS011;67585;44.802;10.332;2023-05-10T05:17:25;7.20;;;2.72;;
78120;SDS011;67585;44.802;10.332;2023-05-10T05:19:50;6.05;;;2.28;;
78120;SDS011;67585;44.802;10.332;2023-05-10T05:22:15;6.95;;;3.47;;
78120;SDS011;67585;44.802;10.332;2023-05-10T05:24:41;7.82;;;3.20;;
78120;SDS011;67585;44.802;10.332;2023-05-10T05:27:06;6.68;;;3.33;;
78120;SDS011;67585;44.802;10.332;2023-05-10T05:29:32;7.88;;;3.42;;
78120;SDS011;67585;44.802;10.332;2023-05-10T05:31:57;6.85;;;3.05;;
78120;SDS011;67585;44.802;10.332;2023-05-10T05:34:22;6.72;;;2.20;;
78120;SDS011;67585;44.802;10.332;2023-05-10T05:36:49;7.60;;;3.60;;
78120;SDS011;67585;44.802;10.332;2023-05-10T05:39:14;4.68;;;2.92;;
78120;SDS011;67585;44.802;10.332;2023-05-10T05:41:40;5.57;;;2.70;;
78120;SDS011;67585;44.802;10.332;2023-05-10T05:44:05;7.70;;;2.78;;
78120;SDS011;67585;44.802;10.332;2023-05-10T05:46:31;5.90;;;2.33;;
78120;SDS011;67585;44.802;10.332;2023-05-10T05:48:56;9.15;;;2.92;;
78120;SDS011;67585;44.802;10.332;2023-05-10T05:51:21;11.02;;;3.65;;
78120;SDS011;67585;44.802;10.332;2023-05-10T05:53:47;8.05;;;2.95;;
78120;SDS011;67585;44.802;10.332;2023-05-10T05:56:13;7.95;;;3.35;;
78120;SDS011;67585;44.802;10.332;2023-05-10T05:58:38;7.75;;;2.70;;
78120;SDS011;67585;44.802;10.332;2023-05-10T06:01:04;6.85;;;2.80;;
78120;SDS011;67585;44.802;10.332;2023-05-10T06:03:35;8.43;;;3.13;;
78120;SDS011;67585;44.802;10.332;2023-05-10T06:06:01;9.88;;;3.90;;
78120;SDS011;67585;44.802;10.332;2023-05-10T06:08:26;8.98;;;3.28;;
78120;SDS011;67585;44.802;10.332;2023-05-10T06:10:58;6.85;;;3.03;;
78120;SDS011;67585;44.802;10.332;2023-05-10T06:13:24;7.05;;;2.83;;
78120;SDS011;67585;44.802;10.332;2023-05-10T06:15:53;7.25;;;3.83;;
78120;SDS011;67585;44.802;10.332;2023-05-10T06:18:19;7.05;;;3.38;;
78120;SDS011;67585;44.802;10.332;2023-05-10T06:20:49;8.20;;;3.90;;
78120;SDS011;67585;44.802;10.332;2023-05-10T06:23:15;7.40;;;3.67;;
78120;SDS011;67585;44.802;10.332;2023-05-10T06:25:40;6.85;;;3.75;;
78120;SDS011;67585;44.802;10.332;2023-05-10T06:28:05;7.40;;;3.63;;
78120;SDS011;67585;44.802;10.332;2023-05-10T06:30:31;8.52;;;3.85;;
78120;SDS011;67585;44.802;10.332;2023-05-10T06:32:56;10.10;;;3.17;;
78120;SDS011;67585;44.802;10.332;2023-05-10T06:35:22;7.75;;;3.38;;
78120;SDS011;67585;44.802;10.332;2023-05-10T06:37:50;7.22;;;3.45;;
78120;SDS011;67585;44.802;10.332;2023-05-10T06:40:16;7.95;;;3.55;;
78120;SDS011;67585;44.802;10.332;2023-05-10T06:42:42;7.00;;;3.00;;
78120;SDS011;67585;44.802;10.332;2023-05-10T06:45:07;9.40;;;3.17;;
78120;SDS011;67585;44.802;10.332;2023-05-10T06:47:34;5.65;;;2.80;;
78120;SDS011;67585;44.802;10.332;2023-05-10T06:49:59;6.15;;;3.15;;
78120;SDS011;67585;44.802;10.332;2023-05-10T06:52:24;7.28;;;3.17;;
78120;SDS011;67585;44.802;10.332;2023-05-10T06:54:50;6.55;;;2.65;;
78120;SDS011;67585;44.802;10.332;2023-05-10T06:57:15;5.35;;;2.85;;
78120;SDS011;67585;44.802;10.332;2023-05-10T06:59:41;5.53;;;2.42;;
78120;SDS011;67585;44.802;10.332;2023-05-10T07:02:06;9.70;;;1.67;;
78120;SDS011;67585;44.802;10.332;2023-05-10T07:04:32;5.50;;;2.30;;
78120;SDS011;67585;44.802;10.332;2023-05-10T07:06:57;5.55;;;1.98;;
78120;SDS011;67585;44.802;10.332;2023-05-10T07:09:23;4.90;;;1.77;;
78120;SDS011;67585;44.802;10.332;2023-05-10T07:11:49;7.00;;;2.50;;
78120;SDS011;67585;44.802;10.332;2023-05-10T07:14:14;4.65;;;2.35;;
78120;SDS011;67585;44.802;10.332;2023-05-10T07:16:40;4.60;;;1.73;;
78120;SDS011;67585;44.802;10.332;2023-05-10T07:19:05;5.95;;;2.17;;
78120;SDS011;67585;44.802;10.332;2023-05-10T07:21:31;6.68;;;2.45;;
78120;SDS011;67585;44.802;10.332;2023-05-10T07:23:57;3.83;;;1.35;;
78120;SDS011;67585;44.802;10.332;2023-05-10T07:26:22;5.00;;;2.05;;
78120;SDS011;67585;44.802;10.332;2023-05-10T07:28:48;5.05;;;1.85;;
78120;SDS011;67585;44.802;10.332;2023-05-10T07:31:14;6.75;;;3.50;;
78120;SDS011;67585;44.802;10.332;2023-05-10T07:33:40;5.00;;;2.22;;
78120;SDS011;67585;44.802;10.332;2023-05-10T07:36:05;5.53;;;1.90;;
78120;SDS011;67585;44.802;10.332;2023-05-10T07:38:31;5.95;;;2.90;;
78120;SDS011;67585;44.802;10.332;2023-05-10T07:40:56;6.28;;;2.08;;
78120;SDS011;67585;44.802;10.332;2023-05-10T07:43:22;5.88;;;2.47;;
78120;SDS011;67585;44.802;10.332;2023-05-10T07:45:47;8.90;;;2.45;;
78120;SDS011;67585;44.802;10.332;2023-05-10T07:48:12;6.78;;;2.60;;
78120;SDS011;67585;44.802;10.332;2023-05-10T07:50:38;6.85;;;2.25;;
78120;SDS011;67585;44.802;10.332;2023-05-10T07:53:03;5.68;;;2.15;;
78120;SDS011;67585;44.802;10.332;2023-05-10T07:55:29;6.68;;;1.90;;
78120;SDS011;67585;44.802;10.332;2023-05-10T07:57:54;5.18;;;1.90;;
78120;SDS011;67585;44.802;10.332;2023-05-10T08:00:20;5.07;;;0.68;;
78120;SDS011;67585;44.802;10.332;2023-05-10T08:02:46;4.88;;;1.60;;
78120;SDS011;67585;44.802;10.332;2023-05-10T08:05:12;6.45;;;1.70;;
78120;SDS011;67585;44.802;10.332;2023-05-10T08:07:38;7.50;;;2.08;;
78120;SDS011;67585;44.802;10.332;2023-05-10T08:10:04;5.68;;;2.15;;
78120;SDS011;67585;44.802;10.332;2023-05-10T08:12:30;5.55;;;1.25;;
78120;SDS011;67585;44.802;10.332;2023-05-10T08:14:56;5.57;;;2.45;;
78120;SDS011;67585;44.802;10.332;2023-05-10T08:17:21;8.57;;;3.17;;
78120;SDS011;67585;44.802;10.332;2023-05-10T08:19:47;6.82;;;2.67;;
78120;SDS011;67585;44.802;10.332;2023-05-10T08:22:12;5.28;;;2.17;;
78120;SDS011;67585;44.802;10.332;2023-05-10T08:24:37;6.82;;;2.50;;
78120;SDS011;67585;44.802;10.332;2023-05-10T08:27:07;5.68;;;2.08;;
78120;SDS011;67585;44.802;10.332;2023-05-10T08:29:33;6.65;;;1.90;;
78120;SDS011;67585;44.802;10.332;2023-05-10T08:31:59;8.88;;;2.80;;
78120;SDS011;67585;44.802;10.332;2023-05-10T08:34:25;4.97;;;1.92;;
78120;SDS011;67585;44.802;10.332;2023-05-10T08:36:51;5.28;;;1.95;;
78120;SDS011;67585;44.802;10.332;2023-05-10T08:39:16;9.82;;;2.08;;
78120;SDS011;67585;44.802;10.332;2023-05-10T08:41:42;7.32;;;2.35;;
78120;SDS011;67585;44.802;10.332;2023-05-10T08:46:34;4.72;;;1.90;;
78120;SDS011;67585;44.802;10.332;2023-05-10T08:49:04;5.47;;;2.30;;
78120;SDS011;67585;44.802;10.332;2023-05-10T08:51:34;6.43;;;2.67;;
78120;SDS011;67585;44.802;10.332;2023-05-10T08:54:02;8.13;;;2.47;;
78120;SDS011;67585;44.802;10.332;2023-05-10T08:56:28;9.10;;;2.05;;
78120;SDS011;67585;44.802;10.332;2023-05-10T08:58:54;6.97;;;1.98;;
78120;SDS011;67585;44.802;10.332;2023-05-10T09:01:20;6.18;;;2.40;;
78120;SDS011;67585;44.802;10.332;2023-05-10T09:03:46;5.07;;;2.05;;
78120;SDS011;67585;44.802;10.332;2023-05-10T09:06:12;6.20;;;1.88;;
78120;SDS011;67585;44.802;10.332;2023-05-10T09:08:38;6.55;;;2.90;;
78120;SDS011;67585;44.802;10.332;2023-05-10T09:11:05;7.65;;;2.38;;
78120;SDS011;67585;44.802;10.332;2023-05-10T09:13:30;5.63;;;1.95;;
78120;SDS011;67585;44.802;10.332;2023-05-10T09:15:56;5.10;;;2.22;;
78120;SDS011;67585;44.802;10.332;2023-05-10T09:18:23;5.57;;;2.60;;
78120;SDS011;67585;44.802;10.332;2023-05-10T09:20:48;4.97;;;2.15;;
78120;SDS011;67585;44.802;10.332;2023-05-10T09:23:14;4.93;;;1.50;;
78120;SDS011;67585;44.802;10.332;2023-05-10T09:25:41;4.35;;;1.95;;
78120;SDS011;67585;44.802;10.332;2023-05-10T09:30:33;8.35;;;1.70;;
78120;SDS011;67585;44.802;10.332;2023-05-10T09:32:59;5.13;;;1.65;;
78120;SDS011;67585;44.802;10.332;2023-05-10T09:35:25;4.43;;;1.45;;
78120;SDS011;67585;44.802;10.332;2023-05-10T09:37:53;6.82;;;2.45;;
78120;SDS011;67585;44.802;10.332;2023-05-10T09:40:21;4.85;;;2.00;;
78120;SDS011;67585;44.802;10.332;2023-05-10T09:42:55;5.10;;;2.00;;
78120;SDS011;67585;44.802;10.332;2023-05-10T09:45:22;4.30;;;1.45;;
78120;SDS011;67585;44.802;10.332;2023-05-10T09:47:48;3.55;;;1.13;;
78120;SDS011;67585;44.802;10.332;2023-05-10T09:50:13;7.80;;;1.55;;
78120;SDS011;67585;44.802;10.332;2023-05-10T09:55:23;5.43;;;2.28;;
78120;SDS011;67585;44.802;10.332;2023-05-10T09:57:58;5.03;;;1.88;;
78120;SDS011;67585;44.802;10.332;2023-05-10T10:00:25;5.63;;;1.85;;
78120;SDS011;67585;44.802;10.332;2023-05-10T10:02:55;3.70;;;1.52;;
78120;SDS011;67585;44.802;10.332;2023-05-10T10:05:31;4.20;;;0.75;;
78120;SDS011;67585;44.802;10.332;2023-05-10T10:07:58;4.35;;;1.52;;
78120;SDS011;67585;44.802;10.332;2023-05-10T10:10:25;3.97;;;1.23;;
78120;SDS011;67585;44.802;10.332;2023-05-10T10:12:51;5.28;;;1.75;;
78120;SDS011;67585;44.802;10.332;2023-05-10T10:15:17;5.07;;;2.35;;
78120;SDS011;67585;44.802;10.332;2023-05-10T10:17:43;4.63;;;1.70;;
78120;SDS011;67585;44.802;10.332;2023-05-10T10:20:09;4.55;;;1.15;;
78120;SDS011;67585;44.802;10.332;2023-05-10T10:22:36;4.05;;;1.40;;
78120;SDS011;67585;44.802;10.332;2023-05-10T10:25:02;4.68;;;1.70;;
78120;SDS011;67585;44.802;10.332;2023-05-10T10:35:31;4.82;;;1.67;;
78120;SDS011;67585;44.802;10.332;2023-05-10T10:37:58;6.07;;;1.20;;
78120;SDS011;67585;44.802;10.332;2023-05-10T10:40:27;7.18;;;2.42;;
78120;SDS011;67585;44.802;10.332;2023-05-10T10:45:23;6.75;;;1.60;;
78120;SDS011;67585;44.802;10.332;2023-05-10T10:50:47;5.15;;;2.10;;
78120;SDS011;67585;44.802;10.332;2023-05-10T10:53:12;3.35;;;1.45;;
78120;SDS011;67585;44.802;10.332;2023-05-10T10:55:47;4.63;;;0.90;;
78120;SDS011;67585;44.802;10.332;2023-05-10T10:58:28;3.08;;;0.68;;
78120;SDS011;67585;44.802;10.332;2023-05-10T11:06:31;3.85;;;1.42;;
78120;SDS011;67585;44.802;10.332;2023-05-10T11:08:58;4.80;;;1.48;;
78120;SDS011;67585;44.802;10.332;2023-05-10T11:11:24;4.32;;;1.17;;
78120;SDS011;67585;44.802;10.332;2023-05-10T11:13:50;3.45;;;1.20;;
78120;SDS011;67585;44.802;10.332;2023-05-10T11:16:19;4.18;;;1.20;;
78120;SDS011;67585;44.802;10.332;2023-05-10T11:19:02;5.13;;;1.30;;
78120;SDS011;67585;44.802;10.332;2023-05-10T11:21:29;4.93;;;1.15;;
78120;SDS011;67585;44.802;10.332;2023-05-10T11:23:56;4.72;;;1.45;;
78120;SDS011;67585;44.802;10.332;2023-05-10T11:26:29;8.20;;;1.85;;
78120;SDS011;67585;44.802;10.332;2023-05-10T11:28:56;5.38;;;2.10;;
78120;SDS011;67585;44.802;10.332;2023-05-10T11:31:22;5.10;;;2.05;;
78120;SDS011;67585;44.802;10.332;2023-05-10T11:36:27;5.72;;;1.23;;
78120;SDS011;67585;44.802;10.332;2023-05-10T11:38:53;6.50;;;1.80;;
78120;SDS011;67585;44.802;10.332;2023-05-10T11:41:20;8.63;;;2.33;;
78120;SDS011;67585;44.802;10.332;2023-05-10T11:43:47;29.17;;;10.25;;
78120;SDS011;67585;44.802;10.332;2023-05-10T11:46:14;6.28;;;2.88;;
78120;SDS011;67585;44.802;10.332;2023-05-10T11:48:41;6.82;;;1.50;;
78120;SDS011;67585;44.802;10.332;2023-05-10T11:51:10;4.45;;;2.03;;
78120;SDS011;67585;44.802;10.332;2023-05-10T11:53:36;5.13;;;1.42;;
78120;SDS011;67585;44.802;10.332;2023-05-10T11:56:06;5.47;;;1.75;;
78120;SDS011;67585;44.802;10.332;2023-05-10T11:58:33;4.18;;;1.55;;
78120;SDS011;67585;44.802;10.332;2023-05-10T12:00:59;5.47;;;1.55;;
78120;SDS011;67585;44.802;10.332;2023-05-10T12:03:25;6.13;;;1.95;;
78120;SDS011;67585;44.802;10.332;2023-05-10T12:05:52;5.88;;;1.55;;
78120;SDS011;67585;44.802;10.332;2023-05-10T12:08:28;6.20;;;1.70;;
78120;SDS011;67585;44.802;10.332;2023-05-10T12:11:03;3.45;;;1.42;;
78120;SDS011;67585;44.802;10.332;2023-05-10T12:13:37;5.60;;;1.42;;
78120;SDS011;67585;44.802;10.332;2023-05-10T12:16:16;5.07;;;1.88;;
78120;SDS011;67585;44.802;10.332;2023-05-10T12:18:49;5.53;;;2.53;;
78120;SDS011;67585;44.802;10.332;2023-05-10T12:21:19;4.93;;;1.45;;
78120;SDS011;67585;44.802;10.332;2023-05-10T12:23:46;4.15;;;1.33;;
78120;SDS011;67585;44.802;10.332;2023-05-10T12:26:13;4.88;;;2.38;;
78120;SDS011;67585;44.802;10.332;2023-05-10T12:28:39;7.88;;;2.33;;
78120;SDS011;67585;44.802;10.332;2023-05-10T12:31:05;4.68;;;2.17;;
78120;SDS011;67585;44.802;10.332;2023-05-10T12:33:38;5.38;;;2.35;;
78120;SDS011;67585;44.802;10.332;2023-05-10T12:36:07;4.70;;;1.50;;
78120;SDS011;67585;44.802;10.332;2023-05-10T12:41:07;6.43;;;1.75;;
78120;SDS011;67585;44.802;10.332;2023-05-10T12:43:34;4.72;;;1.40;;
78120;SDS011;67585;44.802;10.332;2023-05-10T12:46:16;4.22;;;1.42;;
78120;SDS011;67585;44.802;10.332;2023-05-10T12:48:43;4.63;;;1.85;;
78120;SDS011;67585;44.802;10.332;2023-05-10T12:51:09;4.57;;;1.55;;
78120;SDS011;67585;44.802;10.332;2023-05-10T12:53:38;4.75;;;1.35;;
78120;SDS011;67585;44.802;10.332;2023-05-10T12:56:04;4.07;;;1.80;;
78120;SDS011;67585;44.802;10.332;2023-05-10T12:58:30;5.30;;;1.92;;
78120;SDS011;67585;44.802;10.332;2023-05-10T13:00:56;7.22;;;1.55;;
78120;SDS011;67585;44.802;10.332;2023-05-10T13:03:22;4.60;;;1.63;;
78120;SDS011;67585;44.802;10.332;2023-05-10T13:05:48;5.88;;;1.13;;
78120;SDS011;67585;44.802;10.332;2023-05-10T13:08:13;5.30;;;1.77;;
78120;SDS011;67585;44.802;10.332;2023-05-10T13:10:39;4.10;;;1.02;;
78120;SDS011;67585;44.802;10.332;2023-05-10T13:13:05;5.25;;;1.75;;
78120;SDS011;67585;44.802;10.332;2023-05-10T13:15:30;4.07;;;1.35;;
78120;SDS011;67585;44.802;10.332;2023-05-10T13:17:56;6.35;;;2.60;;
78120;SDS011;67585;44.802;10.332;2023-05-10T13:20:21;5.45;;;2.17;;
78120;SDS011;67585;44.802;10.332;2023-05-10T13:22:47;5.22;;;1.60;;
78120;SDS011;67585;44.802;10.332;2023-05-10T13:25:12;3.08;;;1.33;;
78120;SDS011;67585;44.802;10.332;2023-05-10T13:27:41;6.22;;;1.55;;
78120;SDS011;67585;44.802;10.332;2023-05-10T13:30:06;3.65;;;1.15;;
78120;SDS011;67585;44.802;10.332;2023-05-10T13:32:33;4.30;;;1.33;;
78120;SDS011;67585;44.802;10.332;2023-05-10T13:34:58;5.20;;;1.02;;
78120;SDS011;67585;44.802;10.332;2023-05-10T13:37:24;4.47;;;1.60;;
78120;SDS011;67585;44.802;10.332;2023-05-10T13:39:49;5.10;;;1.45;;
78120;SDS011;67585;44.802;10.332;2023-05-10T13:42:15;4.68;;;1.95;;
78120;SDS011;67585;44.802;10.332;2023-05-10T13:44:40;3.35;;;1.13;;
78120;SDS011;67585;44.802;10.332;2023-05-10T13:47:06;4.45;;;1.92;;
78120;SDS011;67585;44.802;10.332;2023-05-10T13:49:32;4.38;;;1.40;;
78120;SDS011;67585;44.802;10.332;2023-05-10T13:51:57;7.40;;;1.90;;
78120;SDS011;67585;44.802;10.332;2023-05-10T13:54:23;3.67;;;1.38;;
78120;SDS011;67585;44.802;10.332;2023-05-10T13:56:49;4.22;;;1.30;;
78120;SDS011;67585;44.802;10.332;2023-05-10T13:59:15;3.38;;;1.35;;
78120;SDS011;67585;44.802;10.332;2023-05-10T14:01:41;4.60;;;1.45;;
78120;SDS011;67585;44.802;10.332;2023-05-10T14:04:07;5.30;;;1.50;;
78120;SDS011;67585;44.802;10.332;2023-05-10T14:06:38;4.07;;;2.63;;
78120;SDS011;67585;44.802;10.332;2023-05-10T14:09:03;4.70;;;2.58;;
78120;SDS011;67585;44.802;10.332;2023-05-10T14:11:28;5.43;;;2.03;;
78120;SDS011;67585;44.802;10.332;2023-05-10T14:13:54;4.75;;;1.92;;
78120;SDS011;67585;44.802;10.332;2023-05-10T14:16:20;5.32;;;1.90;;
78120;SDS011;67585;44.802;10.332;2023-05-10T14:18:45;4.10;;;1.73;;
78120;SDS011;67585;44.802;10.332;2023-05-10T14:21:11;6.50;;;2.45;;
78120;SDS011;67585;44.802;10.332;2023-05-10T14:23:37;6.95;;;3.13;;
78120;SDS011;67585;44.802;10.332;2023-05-10T14:26:02;4.30;;;1.75;;
78120;SDS011;67585;44.802;10.332;2023-05-10T14:28:27;4.93;;;2.83;;
78120;SDS011;67585;44.802;10.332;2023-05-10T14:30:53;6.03;;;2.70;;
78120;SDS011;67585;44.802;10.332;2023-05-10T14:33:18;4.30;;;2.47;;
78120;SDS011;67585;44.802;10.332;2023-05-10T14:35:44;5.10;;;1.33;;
78120;SDS011;67585;44.802;10.332;2023-05-10T14:38:10;5.20;;;2.67;;
78120;SDS011;67585;44.802;10.332;2023-05-10T14:40:36;5.70;;;2.17;;
78120;SDS011;67585;44.802;10.332;2023-05-10T14:43:01;4.68;;;2.15;;
78120;SDS011;67585;44.802;10.332;2023-05-10T14:45:26;7.45;;;2.42;;
78120;SDS011;67585;44.802;10.332;2023-05-10T14:47:52;7.05;;;2.42;;
78120;SDS011;67585;44.802;10.332;2023-05-10T14:50:17;5.88;;;2.20;;
78120;SDS011;67585;44.802;10.332;2023-05-10T14:52:43;5.25;;;2.15;;
78120;SDS011;67585;44.802;10.332;2023-05-10T14:55:09;4.82;;;1.83;;
78120;SDS011;67585;44.802;10.332;2023-05-10T14:57:34;6.50;;;2.55;;
78120;SDS011;67585;44.802;10.332;2023-05-10T15:00:00;5.07;;;2.50;;
78120;SDS011;67585;44.802;10.332;2023-05-10T15:02:25;5.63;;;2.17;;
78120;SDS011;67585;44.802;10.332;2023-05-10T15:04:51;9.18;;;3.58;;
78120;SDS011;67585;44.802;10.332;2023-05-10T15:07:16;5.45;;;2.35;;
78120;SDS011;67585;44.802;10.332;2023-05-10T15:09:43;4.82;;;2.60;;
78120;SDS011;67585;44.802;10.332;2023-05-10T15:12:09;4.95;;;3.13;;
78120;SDS011;67585;44.802;10.332;2023-05-10T15:14:35;6.00;;;2.35;;
78120;SDS011;67585;44.802;10.332;2023-05-10T15:17:01;5.28;;;2.38;;
78120;SDS011;67585;44.802;10.332;2023-05-10T15:19:27;7.60;;;3.45;;
78120;SDS011;67585;44.802;10.332;2023-05-10T15:21:53;8.00;;;3.00;;